sensor_id;sensor_type;location;lat;lon;timestamp;P1;durP1;ratioP1;P2;durP2;ratioP2
19291;SDS011;9779;51.756;7.450;2024-03-06T00:01:47;15.20;;;13.60;;
19291;SDS011;9779;51.756;7.450;2024-03-06T00:04:13;14.63;;;13.13;;
19291;SDS011;9779;51.756;7.450;2024-03-06T00:06:38;15.20;;;13.70;;
19291;SDS011;9779;51.756;7.450;2024-03-06T00:09:04;16.97;;;13.33;;
19291;SDS011;9779;51.756;7.450;2024-03-06T00:11:29;16.63;;;13.43;;
19291;SDS011;9779;51.756;7.450;2024-03-06T00:13:55;14.37;;;13.10;;
19291;SDS011;9779;51.756;7.450;2024-03-06T00:16:21;13.90;;;12.70;;
19291;SDS011;9779;51.756;7.450;2024-03-06T00:18:46;13.83;;;12.63;;
19291;SDS011;9779;51.756;7.450;2024-03-06T00:21:12;13.47;;;12.37;;
19291;SDS011;9779;51.756;7.450;2024-03-06T00:23:38;15.20;;;13.70;;
19291;SDS011;9779;51.756;7.450;2024-03-06T00:26:04;16.70;;;14.90;;
19291;SDS011;9779;51.756;7.450;2024-03-06T00:28:29;19.27;;;12.97;;
19291;SDS011;9779;51.756;7.450;2024-03-06T00:30:55;15.40;;;13.90;;
19291;SDS011;9779;51.756;7.450;2024-03-06T00:33:21;15.90;;;14.30;;
19291;SDS011;9779;51.756;7.450;2024-03-06T00:35:47;14.93;;;13.50;;
19291;SDS011;9779;51.756;7.450;2024-03-06T00:38:12;14.20;;;12.70;;
19291;SDS011;9779;51.756;7.450;2024-03-06T00:40:38;14.57;;;13.17;;
19291;SDS011;9779;51.756;7.450;2024-03-06T00:43:04;15.73;;;14.03;;
19291;SDS011;9779;51.756;7.450;2024-03-06T00:45:30;13.53;;;12.23;;
19291;SDS011;9779;51.756;7.450;2024-03-06T00:47:56;13.97;;;12.63;;
19291;SDS011;9779;51.756;7.450;2024-03-06T00:50:22;14.27;;;12.93;;
19291;SDS011;9779;51.756;7.450;2024-03-06T00:52:49;16.87;;;13.37;;
19291;SDS011;9779;51.756;7.450;2024-03-06T00:55:15;14.60;;;13.20;;
19291;SDS011;9779;51.756;7.450;2024-03-06T00:57:41;13.30;;;12.00;;
19291;SDS011;9779;51.756;7.450;2024-03-06T01:00:06;14.40;;;13.00;;
19291;SDS011;9779;51.756;7.450;2024-03-06T01:02:38;13.00;;;11.83;;
19291;SDS011;9779;51.756;7.450;2024-03-06T01:05:04;14.13;;;12.77;;
19291;SDS011;9779;51.756;7.450;2024-03-06T01:07:31;15.70;;;11.93;;
19291;SDS011;9779;51.756;7.450;2024-03-06T01:09:57;14.43;;;13.00;;
19291;SDS011;9779;51.756;7.450;2024-03-06T01:12:23;13.43;;;12.13;;
19291;SDS011;9779;51.756;7.450;2024-03-06T01:14:49;15.80;;;13.53;;
19291;SDS011;9779;51.756;7.450;2024-03-06T01:17:15;13.40;;;12.23;;
19291;SDS011;9779;51.756;7.450;2024-03-06T01:19:40;14.57;;;13.07;;
19291;SDS011;9779;51.756;7.450;2024-03-06T01:22:08;13.77;;;12.47;;
19291;SDS011;9779;51.756;7.450;2024-03-06T01:24:34;13.93;;;12.63;;
19291;SDS011;9779;51.756;7.450;2024-03-06T01:27:00;15.10;;;13.47;;
19291;SDS011;9779;51.756;7.450;2024-03-06T01:29:27;14.60;;;13.17;;
19291;SDS011;9779;51.756;7.450;2024-03-06T01:31:53;15.37;;;13.87;;
19291;SDS011;9779;51.756;7.450;2024-03-06T01:34:19;14.10;;;12.77;;
19291;SDS011;9779;51.756;7.450;2024-03-06T01:36:45;13.00;;;12.00;;
19291;SDS011;9779;51.756;7.450;2024-03-06T01:39:10;13.20;;;12.10;;
19291;SDS011;9779;51.756;7.450;2024-03-06T01:41:36;14.50;;;12.17;;
19291;SDS011;9779;51.756;7.450;2024-03-06T01:44:02;15.07;;;13.13;;
19291;SDS011;9779;51.756;7.450;2024-03-06T01:46:31;14.50;;;13.20;;
19291;SDS011;9779;51.756;7.450;2024-03-06T01:48:56;16.43;;;13.77;;
19291;SDS011;9779;51.756;7.450;2024-03-06T01:51:22;14.47;;;13.03;;
19291;SDS011;9779;51.756;7.450;2024-03-06T01:53:49;14.83;;;12.53;;
19291;SDS011;9779;51.756;7.450;2024-03-06T01:56:15;13.97;;;12.63;;
19291;SDS011;9779;51.756;7.450;2024-03-06T01:58:42;14.80;;;13.50;;
19291;SDS011;9779;51.756;7.450;2024-03-06T02:01:11;13.87;;;12.43;;
19291;SDS011;9779;51.756;7.450;2024-03-06T02:03:37;14.30;;;12.97;;
19291;SDS011;9779;51.756;7.450;2024-03-06T02:06:03;14.97;;;13.43;;
19291;SDS011;9779;51.756;7.450;2024-03-06T02:08:30;21.50;;;14.97;;
19291;SDS011;9779;51.756;7.450;2024-03-06T02:10:57;14.47;;;13.20;;
19291;SDS011;9779;51.756;7.450;2024-03-06T02:13:25;15.17;;;13.67;;
19291;SDS011;9779;51.756;7.450;2024-03-06T02:15:51;14.87;;;13.57;;
19291;SDS011;9779;51.756;7.450;2024-03-06T02:18:16;15.03;;;13.63;;
19291;SDS011;9779;51.756;7.450;2024-03-06T02:20:42;16.93;;;14.87;;
19291;SDS011;9779;51.756;7.450;2024-03-06T02:23:07;15.83;;;14.17;;
19291;SDS011;9779;51.756;7.450;2024-03-06T02:25:33;15.73;;;14.07;;
19291;SDS011;9779;51.756;7.450;2024-03-06T02:27:59;16.00;;;14.50;;
19291;SDS011;9779;51.756;7.450;2024-03-06T02:30:24;14.20;;;12.77;;
19291;SDS011;9779;51.756;7.450;2024-03-06T02:32:50;15.63;;;14.03;;
19291;SDS011;9779;51.756;7.450;2024-03-06T02:35:16;16.30;;;14.27;;
19291;SDS011;9779;51.756;7.450;2024-03-06T02:37:43;15.50;;;14.10;;
19291;SDS011;9779;51.756;7.450;2024-03-06T02:40:09;18.73;;;14.63;;
19291;SDS011;9779;51.756;7.450;2024-03-06T02:42:35;15.90;;;14.40;;
19291;SDS011;9779;51.756;7.450;2024-03-06T02:45:04;15.53;;;13.23;;
19291;SDS011;9779;51.756;7.450;2024-03-06T02:47:31;15.83;;;13.83;;
19291;SDS011;9779;51.756;7.450;2024-03-06T02:49:57;13.90;;;12.70;;
19291;SDS011;9779;51.756;7.450;2024-03-06T02:52:22;14.70;;;13.40;;
19291;SDS011;9779;51.756;7.450;2024-03-06T02:54:48;14.83;;;13.37;;
19291;SDS011;9779;51.756;7.450;2024-03-06T02:57:13;13.77;;;12.47;;
19291;SDS011;9779;51.756;7.450;2024-03-06T02:59:39;14.17;;;12.87;;
19291;SDS011;9779;51.756;7.450;2024-03-06T03:02:05;14.90;;;13.33;;
19291;SDS011;9779;51.756;7.450;2024-03-06T03:04:31;14.87;;;13.47;;
19291;SDS011;9779;51.756;7.450;2024-03-06T03:06:57;17.03;;;12.50;;
19291;SDS011;9779;51.756;7.450;2024-03-06T03:09:22;14.03;;;12.70;;
19291;SDS011;9779;51.756;7.450;2024-03-06T03:11:48;14.87;;;13.47;;
19291;SDS011;9779;51.756;7.450;2024-03-06T03:14:14;15.27;;;13.80;;
19291;SDS011;9779;51.756;7.450;2024-03-06T03:16:40;14.50;;;13.17;;
19291;SDS011;9779;51.756;7.450;2024-03-06T03:19:07;14.90;;;13.27;;
19291;SDS011;9779;51.756;7.450;2024-03-06T03:21:33;18.13;;;14.40;;
19291;SDS011;9779;51.756;7.450;2024-03-06T03:23:59;15.33;;;13.90;;
19291;SDS011;9779;51.756;7.450;2024-03-06T03:26:25;17.73;;;14.20;;
19291;SDS011;9779;51.756;7.450;2024-03-06T03:28:50;17.30;;;14.07;;
19291;SDS011;9779;51.756;7.450;2024-03-06T03:31:16;16.77;;;14.47;;
19291;SDS011;9779;51.756;7.450;2024-03-06T03:33:41;15.70;;;14.20;;
19291;SDS011;9779;51.756;7.450;2024-03-06T03:36:07;28.13;;;14.53;;
19291;SDS011;9779;51.756;7.450;2024-03-06T03:38:34;16.17;;;14.67;;
19291;SDS011;9779;51.756;7.450;2024-03-06T03:41:03;16.43;;;14.73;;
19291;SDS011;9779;51.756;7.450;2024-03-06T03:43:35;16.97;;;15.17;;
19291;SDS011;9779;51.756;7.450;2024-03-06T03:46:01;16.60;;;14.90;;
19291;SDS011;9779;51.756;7.450;2024-03-06T03:48:26;17.40;;;15.00;;
19291;SDS011;9779;51.756;7.450;2024-03-06T03:50:52;20.30;;;16.23;;
19291;SDS011;9779;51.756;7.450;2024-03-06T03:53:19;20.80;;;15.63;;
19291;SDS011;9779;51.756;7.450;2024-03-06T03:55:44;18.77;;;16.10;;
19291;SDS011;9779;51.756;7.450;2024-03-06T03:58:10;19.00;;;16.17;;
19291;SDS011;9779;51.756;7.450;2024-03-06T04:00:35;20.83;;;17.13;;
19291;SDS011;9779;51.756;7.450;2024-03-06T04:03:03;18.23;;;15.73;;
19291;SDS011;9779;51.756;7.450;2024-03-06T04:05:29;16.77;;;15.17;;
19291;SDS011;9779;51.756;7.450;2024-03-06T04:07:57;18.47;;;15.57;;
19291;SDS011;9779;51.756;7.450;2024-03-06T04:10:22;17.00;;;15.20;;
19291;SDS011;9779;51.756;7.450;2024-03-06T04:12:48;16.97;;;15.17;;
19291;SDS011;9779;51.756;7.450;2024-03-06T04:15:14;20.23;;;17.07;;
19291;SDS011;9779;51.756;7.450;2024-03-06T04:17:40;25.77;;;16.63;;
19291;SDS011;9779;51.756;7.450;2024-03-06T04:20:06;21.00;;;16.53;;
19291;SDS011;9779;51.756;7.450;2024-03-06T04:22:32;17.10;;;15.33;;
19291;SDS011;9779;51.756;7.450;2024-03-06T04:24:58;16.20;;;14.70;;
19291;SDS011;9779;51.756;7.450;2024-03-06T04:27:24;137.40;;;16.73;;
19291;SDS011;9779;51.756;7.450;2024-03-06T04:29:50;19.33;;;13.40;;
19291;SDS011;9779;51.756;7.450;2024-03-06T04:32:17;15.30;;;13.33;;
19291;SDS011;9779;51.756;7.450;2024-03-06T04:34:43;107.80;;;14.00;;
19291;SDS011;9779;51.756;7.450;2024-03-06T04:37:08;123.03;;;13.97;;
19291;SDS011;9779;51.756;7.450;2024-03-06T04:39:34;14.00;;;12.63;;
19291;SDS011;9779;51.756;7.450;2024-03-06T04:42:00;12.47;;;11.57;;
19291;SDS011;9779;51.756;7.450;2024-03-06T04:44:25;12.03;;;11.13;;
19291;SDS011;9779;51.756;7.450;2024-03-06T04:46:51;14.53;;;13.20;;
19291;SDS011;9779;51.756;7.450;2024-03-06T04:49:16;14.80;;;13.43;;
19291;SDS011;9779;51.756;7.450;2024-03-06T04:51:42;15.03;;;13.27;;
19291;SDS011;9779;51.756;7.450;2024-03-06T04:54:08;18.40;;;14.63;;
19291;SDS011;9779;51.756;7.450;2024-03-06T04:56:33;28.77;;;15.10;;
19291;SDS011;9779;51.756;7.450;2024-03-06T04:58:59;28.40;;;13.23;;
19291;SDS011;9779;51.756;7.450;2024-03-06T05:01:28;14.10;;;12.90;;
19291;SDS011;9779;51.756;7.450;2024-03-06T05:03:55;12.43;;;11.63;;
19291;SDS011;9779;51.756;7.450;2024-03-06T05:06:22;17.80;;;10.70;;
19291;SDS011;9779;51.756;7.450;2024-03-06T05:08:48;36.47;;;11.17;;
19291;SDS011;9779;51.756;7.450;2024-03-06T05:11:14;85.53;;;10.97;;
19291;SDS011;9779;51.756;7.450;2024-03-06T05:13:40;21.00;;;10.87;;
19291;SDS011;9779;51.756;7.450;2024-03-06T05:16:06;14.37;;;10.83;;
19291;SDS011;9779;51.756;7.450;2024-03-06T05:18:34;54.77;;;10.93;;
19291;SDS011;9779;51.756;7.450;2024-03-06T05:20:59;106.83;;;12.53;;
19291;SDS011;9779;51.756;7.450;2024-03-06T05:23:25;58.20;;;12.60;;
19291;SDS011;9779;51.756;7.450;2024-03-06T05:25:51;12.10;;;11.07;;
19291;SDS011;9779;51.756;7.450;2024-03-06T05:28:17;23.70;;;11.63;;
19291;SDS011;9779;51.756;7.450;2024-03-06T05:30:43;64.10;;;14.37;;
19291;SDS011;9779;51.756;7.450;2024-03-06T05:33:08;157.33;;;14.43;;
19291;SDS011;9779;51.756;7.450;2024-03-06T05:35:34;129.93;;;13.10;;
19291;SDS011;9779;51.756;7.450;2024-03-06T05:38:00;81.60;;;11.50;;
19291;SDS011;9779;51.756;7.450;2024-03-06T05:40:25;111.03;;;11.03;;
19291;SDS011;9779;51.756;7.450;2024-03-06T05:42:51;137.40;;;11.23;;
19291;SDS011;9779;51.756;7.450;2024-03-06T05:45:16;124.87;;;9.93;;
19291;SDS011;9779;51.756;7.450;2024-03-06T05:47:42;58.57;;;10.07;;
19291;SDS011;9779;51.756;7.450;2024-03-06T05:50:08;65.17;;;9.87;;
19291;SDS011;9779;51.756;7.450;2024-03-06T05:52:35;9.33;;;8.80;;
19291;SDS011;9779;51.756;7.450;2024-03-06T05:55:01;48.80;;;9.43;;
19291;SDS011;9779;51.756;7.450;2024-03-06T05:57:27;9.23;;;8.73;;
19291;SDS011;9779;51.756;7.450;2024-03-06T05:59:53;48.73;;;9.23;;
19291;SDS011;9779;51.756;7.450;2024-03-06T06:02:18;17.37;;;9.40;;
19291;SDS011;9779;51.756;7.450;2024-03-06T06:04:47;9.90;;;9.20;;
19291;SDS011;9779;51.756;7.450;2024-03-06T06:07:13;9.67;;;8.97;;
19291;SDS011;9779;51.756;7.450;2024-03-06T06:09:38;44.53;;;12.07;;
19291;SDS011;9779;51.756;7.450;2024-03-06T06:12:04;75.37;;;24.00;;
19291;SDS011;9779;51.756;7.450;2024-03-06T06:14:29;63.20;;;27.03;;
19291;SDS011;9779;51.756;7.450;2024-03-06T06:16:58;58.23;;;17.03;;
19291;SDS011;9779;51.756;7.450;2024-03-06T06:19:24;56.33;;;13.27;;
19291;SDS011;9779;51.756;7.450;2024-03-06T06:21:51;48.70;;;11.57;;
19291;SDS011;9779;51.756;7.450;2024-03-06T06:24:19;49.67;;;11.13;;
19291;SDS011;9779;51.756;7.450;2024-03-06T06:26:45;100.23;;;13.23;;
19291;SDS011;9779;51.756;7.450;2024-03-06T06:29:11;33.47;;;12.90;;
19291;SDS011;9779;51.756;7.450;2024-03-06T06:31:36;49.57;;;13.03;;
19291;SDS011;9779;51.756;7.450;2024-03-06T06:34:02;24.13;;;12.07;;
19291;SDS011;9779;51.756;7.450;2024-03-06T06:36:28;62.57;;;10.87;;
19291;SDS011;9779;51.756;7.450;2024-03-06T06:38:54;67.57;;;9.63;;
19291;SDS011;9779;51.756;7.450;2024-03-06T06:41:20;53.70;;;8.97;;
19291;SDS011;9779;51.756;7.450;2024-03-06T06:43:45;20.17;;;9.10;;
19291;SDS011;9779;51.756;7.450;2024-03-06T06:46:11;38.20;;;8.97;;
19291;SDS011;9779;51.756;7.450;2024-03-06T06:48:37;56.33;;;10.13;;
19291;SDS011;9779;51.756;7.450;2024-03-06T06:51:03;75.03;;;9.37;;
19291;SDS011;9779;51.756;7.450;2024-03-06T06:53:29;149.90;;;12.83;;
19291;SDS011;9779;51.756;7.450;2024-03-06T06:55:55;14.03;;;9.30;;
19291;SDS011;9779;51.756;7.450;2024-03-06T06:58:21;65.33;;;9.70;;
19291;SDS011;9779;51.756;7.450;2024-03-06T07:00:47;14.93;;;8.37;;
19291;SDS011;9779;51.756;7.450;2024-03-06T07:03:13;46.90;;;7.87;;
19291;SDS011;9779;51.756;7.450;2024-03-06T07:05:38;41.20;;;7.53;;
19291;SDS011;9779;51.756;7.450;2024-03-06T07:08:06;10.53;;;7.03;;
19291;SDS011;9779;51.756;7.450;2024-03-06T07:10:32;45.63;;;7.90;;
19291;SDS011;9779;51.756;7.450;2024-03-06T07:12:58;42.07;;;7.00;;
19291;SDS011;9779;51.756;7.450;2024-03-06T07:15:24;57.60;;;7.30;;
19291;SDS011;9779;51.756;7.450;2024-03-06T07:17:50;7.43;;;7.03;;
19291;SDS011;9779;51.756;7.450;2024-03-06T07:20:15;39.40;;;8.23;;
19291;SDS011;9779;51.756;7.450;2024-03-06T07:22:41;11.17;;;8.20;;
19291;SDS011;9779;51.756;7.450;2024-03-06T07:25:07;9.20;;;8.20;;
19291;SDS011;9779;51.756;7.450;2024-03-06T07:27:33;31.37;;;10.53;;
19291;SDS011;9779;51.756;7.450;2024-03-06T07:29:58;35.70;;;12.20;;
19291;SDS011;9779;51.756;7.450;2024-03-06T07:32:24;47.97;;;10.33;;
19291;SDS011;9779;51.756;7.450;2024-03-06T07:34:50;13.17;;;10.20;;
19291;SDS011;9779;51.756;7.450;2024-03-06T07:37:16;14.33;;;10.10;;
19291;SDS011;9779;51.756;7.450;2024-03-06T07:39:41;9.83;;;9.23;;
19291;SDS011;9779;51.756;7.450;2024-03-06T07:42:07;27.93;;;9.43;;
19291;SDS011;9779;51.756;7.450;2024-03-06T07:44:32;10.07;;;9.47;;
19291;SDS011;9779;51.756;7.450;2024-03-06T07:47:00;63.13;;;9.70;;
19291;SDS011;9779;51.756;7.450;2024-03-06T07:49:26;27.03;;;10.60;;
19291;SDS011;9779;51.756;7.450;2024-03-06T07:51:51;11.13;;;8.80;;
19291;SDS011;9779;51.756;7.450;2024-03-06T07:54:17;9.10;;;8.60;;
19291;SDS011;9779;51.756;7.450;2024-03-06T07:56:42;8.70;;;8.10;;
19291;SDS011;9779;51.756;7.450;2024-03-06T07:59:08;44.87;;;8.60;;
19291;SDS011;9779;51.756;7.450;2024-03-06T08:01:35;118.57;;;9.20;;
19291;SDS011;9779;51.756;7.450;2024-03-06T08:04:00;129.23;;;9.90;;
19291;SDS011;9779;51.756;7.450;2024-03-06T08:06:26;32.37;;;9.10;;
19291;SDS011;9779;51.756;7.450;2024-03-06T08:08:51;94.03;;;11.47;;
19291;SDS011;9779;51.756;7.450;2024-03-06T08:11:17;52.53;;;9.87;;
19291;SDS011;9779;51.756;7.450;2024-03-06T08:13:43;30.70;;;11.60;;
19291;SDS011;9779;51.756;7.450;2024-03-06T08:16:09;11.23;;;9.17;;
19291;SDS011;9779;51.756;7.450;2024-03-06T08:18:36;8.93;;;8.33;;
19291;SDS011;9779;51.756;7.450;2024-03-06T08:21:02;9.80;;;8.13;;
19291;SDS011;9779;51.756;7.450;2024-03-06T08:23:31;19.23;;;8.87;;
19291;SDS011;9779;51.756;7.450;2024-03-06T08:25:58;178.23;;;14.13;;
19291;SDS011;9779;51.756;7.450;2024-03-06T08:28:25;102.00;;;13.30;;
19291;SDS011;9779;51.756;7.450;2024-03-06T08:30:50;106.53;;;14.17;;
19291;SDS011;9779;51.756;7.450;2024-03-06T08:33:17;8.40;;;7.70;;
19291;SDS011;9779;51.756;7.450;2024-03-06T08:35:43;10.30;;;9.27;;
19291;SDS011;9779;51.756;7.450;2024-03-06T08:38:08;16.60;;;11.43;;
19291;SDS011;9779;51.756;7.450;2024-03-06T08:40:34;26.10;;;15.83;;
19291;SDS011;9779;51.756;7.450;2024-03-06T08:43:00;30.57;;;16.90;;
19291;SDS011;9779;51.756;7.450;2024-03-06T08:45:25;23.37;;;15.23;;
19291;SDS011;9779;51.756;7.450;2024-03-06T08:47:51;16.27;;;14.63;;
19291;SDS011;9779;51.756;7.450;2024-03-06T08:50:19;36.80;;;14.03;;
19291;SDS011;9779;51.756;7.450;2024-03-06T08:52:46;34.70;;;15.73;;
19291;SDS011;9779;51.756;7.450;2024-03-06T08:55:11;51.70;;;15.17;;
19291;SDS011;9779;51.756;7.450;2024-03-06T08:57:38;22.40;;;15.97;;
19291;SDS011;9779;51.756;7.450;2024-03-06T09:00:07;24.77;;;18.07;;
19291;SDS011;9779;51.756;7.450;2024-03-06T09:02:39;22.07;;;19.07;;
19291;SDS011;9779;51.756;7.450;2024-03-06T09:05:08;21.90;;;19.47;;
19291;SDS011;9779;51.756;7.450;2024-03-06T09:07:38;26.00;;;19.50;;
19291;SDS011;9779;51.756;7.450;2024-03-06T09:10:08;32.20;;;19.53;;
19291;SDS011;9779;51.756;7.450;2024-03-06T09:12:37;24.13;;;19.90;;
19291;SDS011;9779;51.756;7.450;2024-03-06T09:15:07;27.50;;;20.37;;
19291;SDS011;9779;51.756;7.450;2024-03-06T09:17:37;29.13;;;20.07;;
19291;SDS011;9779;51.756;7.450;2024-03-06T09:20:06;35.53;;;25.93;;
19291;SDS011;9779;51.756;7.450;2024-03-06T09:22:40;85.70;;;48.40;;
19291;SDS011;9779;51.756;7.450;2024-03-06T09:25:12;67.93;;;40.10;;
19291;SDS011;9779;51.756;7.450;2024-03-06T09:27:41;73.57;;;37.83;;
19291;SDS011;9779;51.756;7.450;2024-03-06T09:30:08;46.43;;;31.60;;
19291;SDS011;9779;51.756;7.450;2024-03-06T09:32:38;49.43;;;32.10;;
19291;SDS011;9779;51.756;7.450;2024-03-06T09:35:09;48.17;;;31.73;;
19291;SDS011;9779;51.756;7.450;2024-03-06T09:37:39;44.97;;;28.60;;
19291;SDS011;9779;51.756;7.450;2024-03-06T09:40:08;35.53;;;26.07;;
19291;SDS011;9779;51.756;7.450;2024-03-06T09:42:37;41.10;;;28.07;;
19291;SDS011;9779;51.756;7.450;2024-03-06T09:45:06;40.53;;;29.37;;
19291;SDS011;9779;51.756;7.450;2024-03-06T09:47:34;47.00;;;30.53;;
19291;SDS011;9779;51.756;7.450;2024-03-06T09:50:02;45.50;;;32.10;;
19291;SDS011;9779;51.756;7.450;2024-03-06T09:52:31;51.10;;;31.80;;
19291;SDS011;9779;51.756;7.450;2024-03-06T09:54:59;45.70;;;29.67;;
19291;SDS011;9779;51.756;7.450;2024-03-06T09:57:26;48.57;;;32.83;;
19291;SDS011;9779;51.756;7.450;2024-03-06T09:59:51;47.87;;;31.43;;
19291;SDS011;9779;51.756;7.450;2024-03-06T10:02:40;51.03;;;34.03;;
19291;SDS011;9779;51.756;7.450;2024-03-06T10:05:21;52.27;;;34.43;;
19291;SDS011;9779;51.756;7.450;2024-03-06T10:07:47;58.73;;;35.07;;
19291;SDS011;9779;51.756;7.450;2024-03-06T10:10:14;63.27;;;39.20;;
19291;SDS011;9779;51.756;7.450;2024-03-06T10:12:40;54.63;;;37.07;;
19291;SDS011;9779;51.756;7.450;2024-03-06T10:15:07;61.80;;;40.20;;
19291;SDS011;9779;51.756;7.450;2024-03-06T10:17:37;84.33;;;49.40;;
19291;SDS011;9779;51.756;7.450;2024-03-06T10:20:24;86.00;;;51.87;;
19291;SDS011;9779;51.756;7.450;2024-03-06T10:22:52;83.13;;;49.90;;
19291;SDS011;9779;51.756;7.450;2024-03-06T10:25:21;90.93;;;54.77;;
19291;SDS011;9779;51.756;7.450;2024-03-06T10:28:08;101.70;;;59.33;;
19291;SDS011;9779;51.756;7.450;2024-03-06T10:30:39;110.70;;;64.50;;
19291;SDS011;9779;51.756;7.450;2024-03-06T10:33:10;105.70;;;63.23;;
19291;SDS011;9779;51.756;7.450;2024-03-06T10:35:36;114.10;;;68.70;;
19291;SDS011;9779;51.756;7.450;2024-03-06T10:38:03;105.43;;;60.17;;
19291;SDS011;9779;51.756;7.450;2024-03-06T10:40:32;81.03;;;46.40;;
19291;SDS011;9779;51.756;7.450;2024-03-06T10:43:08;73.30;;;46.37;;
19291;SDS011;9779;51.756;7.450;2024-03-06T10:45:41;66.10;;;39.23;;
19291;SDS011;9779;51.756;7.450;2024-03-06T10:48:18;64.17;;;39.73;;
19291;SDS011;9779;51.756;7.450;2024-03-06T10:50:45;60.43;;;38.60;;
19291;SDS011;9779;51.756;7.450;2024-03-06T10:53:12;59.33;;;39.10;;
19291;SDS011;9779;51.756;7.450;2024-03-06T10:55:39;57.40;;;38.13;;
19291;SDS011;9779;51.756;7.450;2024-03-06T10:58:06;61.67;;;38.63;;
19291;SDS011;9779;51.756;7.450;2024-03-06T11:00:36;53.57;;;37.17;;
19291;SDS011;9779;51.756;7.450;2024-03-06T11:03:06;51.03;;;35.63;;
19291;SDS011;9779;51.756;7.450;2024-03-06T11:05:36;54.33;;;36.23;;
19291;SDS011;9779;51.756;7.450;2024-03-06T11:08:14;52.90;;;35.27;;
19291;SDS011;9779;51.756;7.450;2024-03-06T11:10:42;50.73;;;34.80;;
19291;SDS011;9779;51.756;7.450;2024-03-06T11:15:48;59.53;;;37.97;;
19291;SDS011;9779;51.756;7.450;2024-03-06T11:20:58;80.27;;;46.23;;
19291;SDS011;9779;51.756;7.450;2024-03-06T11:23:24;74.00;;;46.57;;
19291;SDS011;9779;51.756;7.450;2024-03-06T11:28:37;68.67;;;43.73;;
19291;SDS011;9779;51.756;7.450;2024-03-06T11:31:06;54.33;;;34.93;;
19291;SDS011;9779;51.756;7.450;2024-03-06T11:33:42;44.17;;;32.17;;
19291;SDS011;9779;51.756;7.450;2024-03-06T11:38:56;35.70;;;27.00;;
19291;SDS011;9779;51.756;7.450;2024-03-06T11:41:25;44.30;;;31.53;;
19291;SDS011;9779;51.756;7.450;2024-03-06T11:43:53;51.80;;;32.30;;
19291;SDS011;9779;51.756;7.450;2024-03-06T11:46:20;54.27;;;34.40;;
19291;SDS011;9779;51.756;7.450;2024-03-06T11:48:53;73.77;;;44.33;;
19291;SDS011;9779;51.756;7.450;2024-03-06T11:51:20;66.30;;;41.20;;
19291;SDS011;9779;51.756;7.450;2024-03-06T11:53:48;59.47;;;38.43;;
19291;SDS011;9779;51.756;7.450;2024-03-06T11:56:14;50.40;;;33.00;;
19291;SDS011;9779;51.756;7.450;2024-03-06T11:58:40;55.47;;;36.97;;
19291;SDS011;9779;51.756;7.450;2024-03-06T12:01:06;56.30;;;38.37;;
19291;SDS011;9779;51.756;7.450;2024-03-06T12:03:31;43.37;;;32.07;;
19291;SDS011;9779;51.756;7.450;2024-03-06T12:05:57;47.57;;;33.63;;
19291;SDS011;9779;51.756;7.450;2024-03-06T12:08:24;46.13;;;30.60;;
19291;SDS011;9779;51.756;7.450;2024-03-06T12:10:49;43.50;;;31.73;;
19291;SDS011;9779;51.756;7.450;2024-03-06T12:13:15;39.83;;;27.53;;
19291;SDS011;9779;51.756;7.450;2024-03-06T12:15:44;38.57;;;27.07;;
19291;SDS011;9779;51.756;7.450;2024-03-06T12:18:10;43.23;;;30.00;;
19291;SDS011;9779;51.756;7.450;2024-03-06T12:20:40;51.27;;;34.37;;
19291;SDS011;9779;51.756;7.450;2024-03-06T12:23:18;43.40;;;30.63;;
19291;SDS011;9779;51.756;7.450;2024-03-06T12:28:29;47.10;;;32.07;;
19291;SDS011;9779;51.756;7.450;2024-03-06T12:30:55;40.80;;;30.20;;
19291;SDS011;9779;51.756;7.450;2024-03-06T12:33:25;40.70;;;28.53;;
19291;SDS011;9779;51.756;7.450;2024-03-06T12:36:04;41.83;;;29.27;;
19291;SDS011;9779;51.756;7.450;2024-03-06T12:38:31;38.20;;;28.37;;
19291;SDS011;9779;51.756;7.450;2024-03-06T12:40:58;37.47;;;27.70;;
19291;SDS011;9779;51.756;7.450;2024-03-06T12:43:27;30.93;;;23.70;;
19291;SDS011;9779;51.756;7.450;2024-03-06T12:45:55;27.37;;;21.07;;
19291;SDS011;9779;51.756;7.450;2024-03-06T12:48:22;25.07;;;20.77;;
19291;SDS011;9779;51.756;7.450;2024-03-06T12:50:49;37.57;;;27.30;;
19291;SDS011;9779;51.756;7.450;2024-03-06T12:53:19;32.80;;;24.60;;
19291;SDS011;9779;51.756;7.450;2024-03-06T12:55:45;24.27;;;20.17;;
19291;SDS011;9779;51.756;7.450;2024-03-06T12:58:12;32.30;;;24.60;;
19291;SDS011;9779;51.756;7.450;2024-03-06T13:00:38;33.03;;;25.97;;
19291;SDS011;9779;51.756;7.450;2024-03-06T13:03:03;32.83;;;25.27;;
19291;SDS011;9779;51.756;7.450;2024-03-06T13:05:30;37.07;;;26.90;;
19291;SDS011;9779;51.756;7.450;2024-03-06T13:07:56;33.43;;;25.03;;
19291;SDS011;9779;51.756;7.450;2024-03-06T13:10:22;40.50;;;24.23;;
19291;SDS011;9779;51.756;7.450;2024-03-06T13:12:47;32.57;;;24.13;;
19291;SDS011;9779;51.756;7.450;2024-03-06T13:15:13;38.33;;;24.03;;
19291;SDS011;9779;51.756;7.450;2024-03-06T13:17:39;29.20;;;23.27;;
19291;SDS011;9779;51.756;7.450;2024-03-06T13:20:05;34.90;;;23.37;;
19291;SDS011;9779;51.756;7.450;2024-03-06T13:22:34;32.00;;;23.83;;
19291;SDS011;9779;51.756;7.450;2024-03-06T13:25:00;30.80;;;24.63;;
19291;SDS011;9779;51.756;7.450;2024-03-06T13:27:26;35.77;;;24.00;;
19291;SDS011;9779;51.756;7.450;2024-03-06T13:29:52;32.23;;;24.23;;
19291;SDS011;9779;51.756;7.450;2024-03-06T13:32:18;34.77;;;24.17;;
19291;SDS011;9779;51.756;7.450;2024-03-06T13:34:44;51.63;;;32.80;;
19291;SDS011;9779;51.756;7.450;2024-03-06T13:37:09;65.13;;;41.17;;
19291;SDS011;9779;51.756;7.450;2024-03-06T13:39:35;44.77;;;31.10;;
19291;SDS011;9779;51.756;7.450;2024-03-06T13:42:01;34.10;;;25.10;;
19291;SDS011;9779;51.756;7.450;2024-03-06T13:44:27;33.87;;;25.00;;
19291;SDS011;9779;51.756;7.450;2024-03-06T13:46:53;32.23;;;24.03;;
19291;SDS011;9779;51.756;7.450;2024-03-06T13:52:20;33.27;;;24.43;;
19291;SDS011;9779;51.756;7.450;2024-03-06T13:54:46;30.53;;;24.40;;
19291;SDS011;9779;51.756;7.450;2024-03-06T13:57:15;35.00;;;25.00;;
19291;SDS011;9779;51.756;7.450;2024-03-06T13:59:41;38.10;;;23.23;;
19291;SDS011;9779;51.756;7.450;2024-03-06T14:02:07;35.13;;;24.07;;
19291;SDS011;9779;51.756;7.450;2024-03-06T14:04:33;32.63;;;24.30;;
19291;SDS011;9779;51.756;7.450;2024-03-06T14:06:59;29.10;;;21.67;;
19291;SDS011;9779;51.756;7.450;2024-03-06T14:09:25;28.57;;;21.80;;
19291;SDS011;9779;51.756;7.450;2024-03-06T14:11:52;32.40;;;21.67;;
19291;SDS011;9779;51.756;7.450;2024-03-06T14:14:18;26.40;;;22.37;;
19291;SDS011;9779;51.756;7.450;2024-03-06T14:16:44;30.30;;;22.47;;
19291;SDS011;9779;51.756;7.450;2024-03-06T14:19:10;37.27;;;28.37;;
19291;SDS011;9779;51.756;7.450;2024-03-06T14:21:36;26.83;;;22.53;;
19291;SDS011;9779;51.756;7.450;2024-03-06T14:24:03;32.83;;;23.57;;
19291;SDS011;9779;51.756;7.450;2024-03-06T14:26:31;28.53;;;23.10;;
19291;SDS011;9779;51.756;7.450;2024-03-06T14:28:57;20.23;;;15.40;;
19291;SDS011;9779;51.756;7.450;2024-03-06T14:31:23;30.47;;;23.90;;
19291;SDS011;9779;51.756;7.450;2024-03-06T14:33:49;27.47;;;21.50;;
19291;SDS011;9779;51.756;7.450;2024-03-06T14:36:15;32.30;;;21.43;;
19291;SDS011;9779;51.756;7.450;2024-03-06T14:38:41;21.87;;;18.47;;
19291;SDS011;9779;51.756;7.450;2024-03-06T14:41:09;20.03;;;16.73;;
19291;SDS011;9779;51.756;7.450;2024-03-06T14:43:35;21.27;;;17.73;;
19291;SDS011;9779;51.756;7.450;2024-03-06T14:46:03;25.73;;;18.10;;
19291;SDS011;9779;51.756;7.450;2024-03-06T14:48:30;26.50;;;19.87;;
19291;SDS011;9779;51.756;7.450;2024-03-06T14:50:55;23.33;;;19.20;;